RYR8HA LIMJ-LICC
Flight info
| Callsign | RYR8HA |
|---|---|
| Flight time | 1h 20m |
| Altitude | 35000 |
| Route | UNITA DCT ELB DCT PODOX DCT LURON DCT BEKIV DCT ENEPA DCT LIBRO |
| Aircraft | B38M/M-SDE1FGHILORVWXY/HB1 |
Departure
| Time | 2026-04-26 18:33 |
|---|---|
| Airport | Genoa Cristoforo Colombo Airport (LIMJ) |
Arrival
| Time | 2026-04-26 19:54 |
|---|---|
| Airport | Catania-Fontanarossa Airport (LICC) |
| Time | Latitude | Longitude | Altitude | Speed | Heading |
|---|---|---|---|---|---|
| 2026-04-26 18:06 | 44.41431 | 8.84951 | 20 ft | 0 kts | 59° |
| 2026-04-26 18:23 | 44.41422 | 8.84932 | 20 ft | 4 kts | 60° |
| 2026-04-26 18:23 | 44.41407 | 8.84901 | 20 ft | 4 kts | 40° |
| 2026-04-26 18:24 | 44.41390 | 8.84885 | 23 ft | 4 kts | 38° |
| 2026-04-26 18:24 | 44.41376 | 8.84858 | 22 ft | 4 kts | 79° |
| 2026-04-26 18:24 | 44.41377 | 8.84823 | 21 ft | 2 kts | 105° |
| 2026-04-26 18:24 | 44.41377 | 8.84821 | 21 ft | 0 kts | 105° |
| 2026-04-26 18:29 | 44.41377 | 8.84823 | 21 ft | 1 kts | 105° |
| 2026-04-26 18:30 | 44.41371 | 8.84853 | 20 ft | 6 kts | 105° |
| 2026-04-26 18:30 | 44.41354 | 8.84927 | 20 ft | 9 kts | 121° |
| 2026-04-26 18:30 | 44.41300 | 8.84944 | 20 ft | 9 kts | 193° |
| 2026-04-26 18:30 | 44.41233 | 8.84919 | 20 ft | 11 kts | 195° |
| 2026-04-26 18:31 | 44.41182 | 8.84899 | 17 ft | 1 kts | 195° |
| 2026-04-26 18:31 | 44.41167 | 8.84893 | 17 ft | 2 kts | 196° |
| 2026-04-26 18:31 | 44.41166 | 8.84893 | 17 ft | 0 kts | 196° |
| 2026-04-26 18:31 | 44.41163 | 8.84892 | 17 ft | 1 kts | 196° |
| 2026-04-26 18:32 | 44.41150 | 8.84885 | 19 ft | 3 kts | 202° |
| 2026-04-26 18:32 | 44.41130 | 8.84871 | 18 ft | 4 kts | 209° |
| 2026-04-26 18:32 | 44.41097 | 8.84843 | 19 ft | 7 kts | 211° |
| 2026-04-26 18:32 | 44.41079 | 8.84783 | 19 ft | 9 kts | 278° |
| 2026-04-26 18:33 | 44.41125 | 8.84544 | 26 ft | 62 kts | 285° |
| 2026-04-26 18:33 | 44.41317 | 8.83566 | 26 ft | 144 kts | 285° |
| 2026-04-26 18:33 | 44.41636 | 8.81948 | 327 ft | 190 kts | 285° |
| 2026-04-26 18:33 | 44.42000 | 8.80073 | 1197 ft | 208 kts | 281° |
| 2026-04-26 18:34 | 44.41975 | 8.77977 | 2072 ft | 228 kts | 252° |
| 2026-04-26 18:34 | 44.41107 | 8.76104 | 2860 ft | 234 kts | 214° |
| 2026-04-26 18:34 | 44.39571 | 8.75292 | 3597 ft | 243 kts | 178° |
| 2026-04-26 18:34 | 44.38010 | 8.75931 | 4786 ft | 233 kts | 145° |
| 2026-04-26 18:35 | 44.36807 | 8.77451 | 5794 ft | 233 kts | 134° |
| 2026-04-26 18:35 | 44.35559 | 8.78975 | 6545 ft | 249 kts | 146° |
| 2026-04-26 18:35 | 44.33973 | 8.80091 | 7251 ft | 260 kts | 155° |
| 2026-04-26 18:35 | 44.32241 | 8.81012 | 7952 ft | 274 kts | 159° |
| 2026-04-26 18:36 | 44.30400 | 8.81985 | 8646 ft | 286 kts | 158° |
| 2026-04-26 18:36 | 44.28551 | 8.83003 | 9629 ft | 288 kts | 158° |
| 2026-04-26 18:36 | 44.26660 | 8.84062 | 10392 ft | 298 kts | 157° |
| 2026-04-26 18:36 | 44.24686 | 8.85184 | 10851 ft | 316 kts | 157° |
| 2026-04-26 18:37 | 44.22605 | 8.86376 | 11435 ft | 329 kts | 157° |
| 2026-04-26 18:37 | 44.20449 | 8.87615 | 11955 ft | 343 kts | 157° |
| 2026-04-26 18:37 | 44.18203 | 8.88907 | 12583 ft | 352 kts | 157° |
| 2026-04-26 18:37 | 44.15930 | 8.90212 | 13421 ft | 356 kts | 157° |
| 2026-04-26 18:38 | 44.13614 | 8.91542 | 14020 ft | 364 kts | 157° |
| 2026-04-26 18:38 | 44.11271 | 8.92885 | 14785 ft | 364 kts | 157° |
| 2026-04-26 18:38 | 44.08916 | 8.94233 | 15517 ft | 368 kts | 158° |
| 2026-04-26 18:38 | 44.06533 | 8.95597 | 16221 ft | 372 kts | 158° |
| 2026-04-26 18:39 | 44.04158 | 8.96956 | 16930 ft | 376 kts | 158° |
| 2026-04-26 18:39 | 44.01721 | 8.98349 | 17623 ft | 380 kts | 158° |
| 2026-04-26 18:39 | 43.99268 | 8.99749 | 18301 ft | 384 kts | 158° |
| 2026-04-26 18:39 | 43.96786 | 9.01165 | 18900 ft | 387 kts | 159° |
| 2026-04-26 18:40 | 43.94349 | 9.02791 | 19488 ft | 392 kts | 146° |
| 2026-04-26 18:40 | 43.92217 | 9.05163 | 20087 ft | 395 kts | 142° |
| 2026-04-26 18:40 | 43.90076 | 9.07598 | 20632 ft | 399 kts | 142° |
| 2026-04-26 18:40 | 43.87930 | 9.10058 | 21217 ft | 402 kts | 141° |
| 2026-04-26 18:41 | 43.85770 | 9.12547 | 21752 ft | 406 kts | 141° |
| 2026-04-26 18:41 | 43.83593 | 9.15059 | 22302 ft | 409 kts | 141° |
| 2026-04-26 18:41 | 43.81397 | 9.17592 | 22850 ft | 412 kts | 142° |
| 2026-04-26 18:41 | 43.79183 | 9.20143 | 23400 ft | 416 kts | 142° |
| 2026-04-26 18:42 | 43.76951 | 9.22713 | 23887 ft | 419 kts | 142° |
| 2026-04-26 18:42 | 43.74733 | 9.25266 | 24335 ft | 422 kts | 142° |
| 2026-04-26 18:42 | 43.72469 | 9.27867 | 24772 ft | 425 kts | 142° |
| 2026-04-26 18:42 | 43.70193 | 9.30481 | 25207 ft | 427 kts | 142° |
| 2026-04-26 18:43 | 43.67897 | 9.33114 | 25631 ft | 430 kts | 142° |
| 2026-04-26 18:43 | 43.65585 | 9.35763 | 26049 ft | 433 kts | 142° |
| 2026-04-26 18:43 | 43.63252 | 9.38433 | 26459 ft | 436 kts | 142° |
| 2026-04-26 18:43 | 43.60908 | 9.41112 | 26871 ft | 439 kts | 142° |
| 2026-04-26 18:44 | 43.58550 | 9.43806 | 27269 ft | 442 kts | 142° |
| 2026-04-26 18:44 | 43.56175 | 9.46515 | 27653 ft | 444 kts | 142° |
| 2026-04-26 18:44 | 43.53784 | 9.49241 | 28025 ft | 448 kts | 141° |
| 2026-04-26 18:44 | 43.51372 | 9.51987 | 28393 ft | 451 kts | 141° |
| 2026-04-26 18:45 | 43.48939 | 9.54753 | 28761 ft | 454 kts | 141° |
| 2026-04-26 18:45 | 43.46497 | 9.57527 | 29124 ft | 457 kts | 141° |
| 2026-04-26 18:45 | 43.44039 | 9.60317 | 29488 ft | 459 kts | 142° |
| 2026-04-26 18:45 | 43.41566 | 9.63121 | 29840 ft | 462 kts | 141° |
| 2026-04-26 18:46 | 43.39074 | 9.65942 | 30214 ft | 464 kts | 141° |
| 2026-04-26 18:46 | 43.36576 | 9.68768 | 30519 ft | 466 kts | 141° |
| 2026-04-26 18:46 | 43.34070 | 9.71599 | 30900 ft | 466 kts | 141° |
| 2026-04-26 18:46 | 43.31567 | 9.74423 | 31328 ft | 465 kts | 142° |
| 2026-04-26 18:47 | 43.29075 | 9.77233 | 31740 ft | 464 kts | 142° |
| 2026-04-26 18:47 | 43.26575 | 9.80048 | 32148 ft | 464 kts | 142° |
| 2026-04-26 18:47 | 43.24088 | 9.82845 | 32553 ft | 463 kts | 142° |
| 2026-04-26 18:47 | 43.21634 | 9.85604 | 32966 ft | 462 kts | 142° |
| 2026-04-26 18:48 | 43.19150 | 9.88391 | 33373 ft | 461 kts | 142° |
| 2026-04-26 18:48 | 43.16670 | 9.91172 | 33756 ft | 460 kts | 142° |
| 2026-04-26 18:48 | 43.14191 | 9.93948 | 34133 ft | 460 kts | 142° |
| 2026-04-26 18:48 | 43.11716 | 9.96717 | 34473 ft | 459 kts | 142° |
| 2026-04-26 18:49 | 43.09242 | 9.99481 | 34770 ft | 459 kts | 142° |
| 2026-04-26 18:49 | 43.06770 | 10.02241 | 35074 ft | 459 kts | 142° |
| 2026-04-26 18:49 | 43.04290 | 10.05007 | 35179 ft | 462 kts | 142° |
| 2026-04-26 18:49 | 43.01782 | 10.07801 | 35150 ft | 467 kts | 142° |
| 2026-04-26 18:50 | 42.96731 | 10.13419 | 35147 ft | 468 kts | 142° |
| 2026-04-26 18:50 | 42.91666 | 10.19040 | 35152 ft | 469 kts | 142° |
| 2026-04-26 18:51 | 42.86608 | 10.24641 | 35153 ft | 469 kts | 142° |
| 2026-04-26 18:51 | 42.81531 | 10.30253 | 35151 ft | 469 kts | 142° |
| 2026-04-26 18:52 | 42.76490 | 10.35813 | 35152 ft | 469 kts | 142° |
| 2026-04-26 18:52 | 42.70940 | 10.40245 | 35160 ft | 463 kts | 165° |
| 2026-04-26 18:53 | 42.64767 | 10.42863 | 35154 ft | 465 kts | 165° |
| 2026-04-26 18:53 | 42.58567 | 10.45394 | 35151 ft | 465 kts | 165° |
| 2026-04-26 18:54 | 42.52362 | 10.47882 | 35147 ft | 465 kts | 165° |
| 2026-04-26 18:54 | 42.46140 | 10.50367 | 35154 ft | 466 kts | 165° |
| 2026-04-26 18:55 | 42.39928 | 10.52844 | 35151 ft | 466 kts | 165° |
| 2026-04-26 18:55 | 42.33710 | 10.55317 | 35154 ft | 466 kts | 165° |
| 2026-04-26 18:56 | 42.27526 | 10.57966 | 35140 ft | 467 kts | 155° |
| 2026-04-26 18:56 | 42.21915 | 10.62309 | 35134 ft | 469 kts | 152° |
| 2026-04-26 18:57 | 42.18133 | 10.65251 | 35157 ft | 469 kts | 151° |
| 2026-04-26 18:57 | 42.10629 | 10.71133 | 35152 ft | 469 kts | 151° |
| 2026-04-26 18:58 | 42.04982 | 10.75554 | 35156 ft | 469 kts | 151° |
| 2026-04-26 18:58 | 41.99340 | 10.79962 | 35158 ft | 469 kts | 151° |
| 2026-04-26 18:59 | 41.93693 | 10.84364 | 35157 ft | 469 kts | 151° |
| 2026-04-26 18:59 | 41.88051 | 10.88754 | 35151 ft | 469 kts | 151° |
| 2026-04-26 19:00 | 41.82409 | 10.93135 | 35160 ft | 468 kts | 151° |
| 2026-04-26 19:00 | 41.76800 | 10.97481 | 35161 ft | 468 kts | 151° |
| 2026-04-26 19:01 | 41.71158 | 11.01844 | 35163 ft | 468 kts | 151° |
| 2026-04-26 19:01 | 41.65512 | 11.06200 | 35153 ft | 468 kts | 151° |
| 2026-04-26 19:02 | 41.59872 | 11.10544 | 35161 ft | 467 kts | 151° |
| 2026-04-26 19:02 | 41.55191 | 11.14142 | 35163 ft | 467 kts | 151° |
| 2026-04-26 19:03 | 41.48605 | 11.19194 | 35163 ft | 467 kts | 151° |
| 2026-04-26 19:03 | 41.43010 | 11.23477 | 35158 ft | 467 kts | 151° |
| 2026-04-26 19:04 | 41.37381 | 11.27777 | 35164 ft | 466 kts | 151° |
| 2026-04-26 19:04 | 41.31758 | 11.32063 | 35164 ft | 465 kts | 152° |
| 2026-04-26 19:05 | 41.23330 | 11.38473 | 35165 ft | 465 kts | 152° |
| 2026-04-26 19:06 | 41.17708 | 11.42738 | 35172 ft | 465 kts | 152° |
| 2026-04-26 19:06 | 41.12090 | 11.46990 | 35171 ft | 465 kts | 152° |
| 2026-04-26 19:07 | 41.07426 | 11.50515 | 35160 ft | 465 kts | 152° |
| 2026-04-26 19:07 | 41.01807 | 11.54753 | 35163 ft | 465 kts | 152° |
| 2026-04-26 19:08 | 40.96187 | 11.58985 | 35165 ft | 465 kts | 152° |
| 2026-04-26 19:08 | 40.90562 | 11.63210 | 35160 ft | 464 kts | 152° |
| 2026-04-26 19:09 | 40.84949 | 11.67419 | 35171 ft | 464 kts | 152° |
| 2026-04-26 19:09 | 40.79331 | 11.71623 | 35168 ft | 464 kts | 152° |
| 2026-04-26 19:10 | 40.73745 | 11.75795 | 35160 ft | 464 kts | 152° |
| 2026-04-26 19:10 | 40.68123 | 11.79986 | 35168 ft | 463 kts | 152° |
| 2026-04-26 19:11 | 40.62501 | 11.84169 | 35165 ft | 463 kts | 152° |
| 2026-04-26 19:11 | 40.56890 | 11.88335 | 35165 ft | 464 kts | 152° |
| 2026-04-26 19:12 | 40.51262 | 11.92505 | 35168 ft | 464 kts | 152° |
| 2026-04-26 19:12 | 40.45681 | 11.96633 | 35161 ft | 463 kts | 152° |
| 2026-04-26 19:13 | 40.40059 | 12.00784 | 35170 ft | 463 kts | 152° |
| 2026-04-26 19:13 | 40.34442 | 12.04922 | 35168 ft | 463 kts | 152° |
| 2026-04-26 19:14 | 40.28824 | 12.09054 | 35175 ft | 463 kts | 152° |
| 2026-04-26 19:14 | 40.23199 | 12.13182 | 35164 ft | 463 kts | 152° |
| 2026-04-26 19:15 | 40.17578 | 12.17300 | 35168 ft | 463 kts | 152° |
| 2026-04-26 19:15 | 40.11995 | 12.21382 | 35169 ft | 463 kts | 152° |
| 2026-04-26 19:16 | 40.06371 | 12.25486 | 35171 ft | 463 kts | 152° |
| 2026-04-26 19:16 | 40.00747 | 12.29583 | 35172 ft | 463 kts | 152° |
| 2026-04-26 19:17 | 39.95122 | 12.33672 | 35169 ft | 463 kts | 152° |
| 2026-04-26 19:17 | 39.89495 | 12.37755 | 35168 ft | 463 kts | 152° |
| 2026-04-26 19:18 | 39.83866 | 12.41833 | 35169 ft | 463 kts | 152° |
| 2026-04-26 19:18 | 39.78229 | 12.45906 | 35165 ft | 463 kts | 152° |
| 2026-04-26 19:19 | 39.72593 | 12.49973 | 35167 ft | 463 kts | 152° |
| 2026-04-26 19:19 | 39.66953 | 12.54034 | 35170 ft | 463 kts | 152° |
| 2026-04-26 19:20 | 39.61319 | 12.58084 | 35170 ft | 463 kts | 152° |
| 2026-04-26 19:20 | 39.55677 | 12.62132 | 35161 ft | 463 kts | 152° |
| 2026-04-26 19:21 | 39.50019 | 12.66183 | 35169 ft | 465 kts | 153° |
| 2026-04-26 19:21 | 39.44350 | 12.70235 | 35170 ft | 465 kts | 153° |
| 2026-04-26 19:22 | 39.38682 | 12.74279 | 35172 ft | 465 kts | 153° |
| 2026-04-26 19:22 | 39.33018 | 12.78313 | 35173 ft | 465 kts | 153° |
| 2026-04-26 19:23 | 39.27367 | 12.82328 | 35173 ft | 467 kts | 153° |
| 2026-04-26 19:23 | 39.21627 | 12.86401 | 35169 ft | 467 kts | 153° |
| 2026-04-26 19:24 | 39.15964 | 12.90412 | 35170 ft | 467 kts | 153° |
| 2026-04-26 19:24 | 39.07405 | 12.96461 | 35159 ft | 467 kts | 153° |
| 2026-04-26 19:25 | 39.02618 | 12.99837 | 35172 ft | 470 kts | 153° |
| 2026-04-26 19:25 | 38.95954 | 13.04527 | 35169 ft | 470 kts | 153° |
| 2026-04-26 19:26 | 38.90220 | 13.08556 | 35170 ft | 470 kts | 153° |
| 2026-04-26 19:26 | 38.84405 | 13.12346 | 35171 ft | 467 kts | 160° |
| 2026-04-26 19:27 | 38.78432 | 13.15670 | 35169 ft | 470 kts | 159° |
| 2026-04-26 19:27 | 38.72455 | 13.19074 | 35168 ft | 470 kts | 159° |
| 2026-04-26 19:28 | 38.66473 | 13.22486 | 35170 ft | 470 kts | 159° |
| 2026-04-26 19:28 | 38.60497 | 13.25888 | 35171 ft | 470 kts | 159° |
| 2026-04-26 19:29 | 38.54519 | 13.29285 | 35167 ft | 470 kts | 159° |
| 2026-04-26 19:29 | 38.48579 | 13.32654 | 35165 ft | 470 kts | 159° |
| 2026-04-26 19:30 | 38.42599 | 13.36041 | 35118 ft | 471 kts | 159° |
| 2026-04-26 19:30 | 38.39605 | 13.37734 | 34368 ft | 472 kts | 159° |
| 2026-04-26 19:30 | 38.37563 | 13.38887 | 33479 ft | 480 kts | 159° |
| 2026-04-26 19:31 | 38.33488 | 13.41188 | 32317 ft | 482 kts | 159° |
| 2026-04-26 19:31 | 38.30431 | 13.42911 | 31784 ft | 477 kts | 159° |
| 2026-04-26 19:31 | 38.27407 | 13.44615 | 31120 ft | 475 kts | 159° |
| 2026-04-26 19:31 | 38.24390 | 13.46313 | 30453 ft | 474 kts | 160° |
| 2026-04-26 19:32 | 38.21382 | 13.48005 | 29747 ft | 471 kts | 160° |
| 2026-04-26 19:32 | 38.18396 | 13.49684 | 29140 ft | 467 kts | 159° |
| 2026-04-26 19:32 | 38.15438 | 13.51345 | 28556 ft | 463 kts | 159° |
| 2026-04-26 19:32 | 38.12506 | 13.52989 | 27966 ft | 459 kts | 159° |
| 2026-04-26 19:33 | 38.09590 | 13.54622 | 27364 ft | 455 kts | 159° |
| 2026-04-26 19:33 | 38.06710 | 13.56234 | 26807 ft | 452 kts | 159° |
| 2026-04-26 19:33 | 38.03881 | 13.57817 | 26232 ft | 449 kts | 159° |
| 2026-04-26 19:33 | 38.01030 | 13.59411 | 25670 ft | 446 kts | 159° |
| 2026-04-26 19:34 | 37.98195 | 13.60994 | 25096 ft | 444 kts | 159° |
| 2026-04-26 19:34 | 37.95373 | 13.62569 | 24541 ft | 442 kts | 159° |
| 2026-04-26 19:34 | 37.92563 | 13.64137 | 23980 ft | 440 kts | 159° |
| 2026-04-26 19:34 | 37.89865 | 13.65978 | 23272 ft | 444 kts | 146° |
| 2026-04-26 19:35 | 37.87658 | 13.68705 | 22615 ft | 446 kts | 128° |
| 2026-04-26 19:35 | 37.86153 | 13.72115 | 22154 ft | 441 kts | 113° |
| 2026-04-26 19:35 | 37.85005 | 13.75686 | 21649 ft | 436 kts | 112° |
| 2026-04-26 19:35 | 37.83870 | 13.79233 | 21102 ft | 433 kts | 112° |
| 2026-04-26 19:36 | 37.82752 | 13.82769 | 20565 ft | 430 kts | 112° |
| 2026-04-26 19:36 | 37.82021 | 13.85086 | 20226 ft | 428 kts | 112° |
| 2026-04-26 19:36 | 37.80552 | 13.89749 | 19550 ft | 424 kts | 112° |
| 2026-04-26 19:36 | 37.79465 | 13.93196 | 19042 ft | 422 kts | 112° |
| 2026-04-26 19:37 | 37.78379 | 13.96635 | 18553 ft | 419 kts | 112° |
| 2026-04-26 19:37 | 37.77311 | 13.99998 | 17975 ft | 417 kts | 113° |
| 2026-04-26 19:37 | 37.76211 | 14.03383 | 17450 ft | 414 kts | 113° |
| 2026-04-26 19:37 | 37.75110 | 14.06775 | 16980 ft | 409 kts | 113° |
| 2026-04-26 19:38 | 37.74049 | 14.10039 | 16505 ft | 405 kts | 113° |
| 2026-04-26 19:38 | 37.72973 | 14.13350 | 16039 ft | 401 kts | 113° |
| 2026-04-26 19:38 | 37.71930 | 14.16557 | 15590 ft | 398 kts | 113° |
| 2026-04-26 19:38 | 37.70883 | 14.19770 | 15131 ft | 394 kts | 113° |
| 2026-04-26 19:39 | 37.69846 | 14.22948 | 14676 ft | 391 kts | 113° |
| 2026-04-26 19:39 | 37.68812 | 14.26118 | 14237 ft | 388 kts | 113° |
| 2026-04-26 19:39 | 37.67789 | 14.29248 | 13765 ft | 385 kts | 113° |
| 2026-04-26 19:39 | 37.66771 | 14.32358 | 13281 ft | 382 kts | 113° |
| 2026-04-26 19:40 | 37.65763 | 14.35436 | 12841 ft | 377 kts | 113° |
| 2026-04-26 19:40 | 37.64763 | 14.38486 | 12506 ft | 370 kts | 113° |
| 2026-04-26 19:40 | 37.63794 | 14.41438 | 12363 ft | 358 kts | 113° |
| 2026-04-26 19:40 | 37.62856 | 14.44297 | 12205 ft | 347 kts | 112° |
| 2026-04-26 19:41 | 37.62263 | 14.47189 | 11997 ft | 339 kts | 92° |
| 2026-04-26 19:41 | 37.62407 | 14.50108 | 11846 ft | 328 kts | 85° |
| 2026-04-26 19:41 | 37.62596 | 14.52935 | 11703 ft | 319 kts | 85° |
| 2026-04-26 19:41 | 37.62719 | 14.54765 | 11600 ft | 313 kts | 85° |
| 2026-04-26 19:42 | 37.62963 | 14.58355 | 11402 ft | 302 kts | 85° |
| 2026-04-26 19:42 | 37.63140 | 14.60955 | 11248 ft | 294 kts | 85° |
| 2026-04-26 19:42 | 37.63313 | 14.63488 | 11085 ft | 286 kts | 85° |
| 2026-04-26 19:42 | 37.63482 | 14.65969 | 10830 ft | 283 kts | 85° |
| 2026-04-26 19:43 | 37.63648 | 14.68426 | 10595 ft | 279 kts | 86° |
| 2026-04-26 19:43 | 37.63463 | 14.70827 | 10324 ft | 275 kts | 111° |
| 2026-04-26 19:43 | 37.62426 | 14.72798 | 10061 ft | 270 kts | 140° |
| 2026-04-26 19:43 | 37.60845 | 14.73912 | 9821 ft | 262 kts | 166° |
| 2026-04-26 19:44 | 37.59073 | 14.74309 | 9617 ft | 256 kts | 172° |
| 2026-04-26 19:44 | 37.57325 | 14.74604 | 9387 ft | 251 kts | 179° |
| 2026-04-26 19:44 | 37.55651 | 14.74178 | 9104 ft | 245 kts | 209° |
| 2026-04-26 19:44 | 37.54412 | 14.72782 | 8938 ft | 236 kts | 237° |
| 2026-04-26 19:45 | 37.53818 | 14.70871 | 8576 ft | 237 kts | 260° |
| 2026-04-26 19:45 | 37.53586 | 14.68809 | 8231 ft | 238 kts | 262° |
| 2026-04-26 19:45 | 37.53374 | 14.66742 | 7942 ft | 238 kts | 262° |
| 2026-04-26 19:45 | 37.52872 | 14.64787 | 7579 ft | 235 kts | 235° |
| 2026-04-26 19:46 | 37.51671 | 14.63437 | 7184 ft | 232 kts | 203° |
| 2026-04-26 19:46 | 37.50113 | 14.63052 | 6793 ft | 230 kts | 178° |
| 2026-04-26 19:46 | 37.48516 | 14.63189 | 6400 ft | 230 kts | 174° |
| 2026-04-26 19:46 | 37.46930 | 14.63365 | 6061 ft | 228 kts | 174° |
| 2026-04-26 19:47 | 37.45369 | 14.63541 | 5798 ft | 228 kts | 174° |
| 2026-04-26 19:47 | 37.44834 | 14.63625 | 5706 ft | 229 kts | 168° |
| 2026-04-26 19:47 | 37.42726 | 14.65443 | 5333 ft | 227 kts | 120° |
| 2026-04-26 19:47 | 37.42292 | 14.67324 | 5162 ft | 225 kts | 90° |
| 2026-04-26 19:48 | 37.42631 | 14.69230 | 5041 ft | 225 kts | 67° |
| 2026-04-26 19:48 | 37.43196 | 14.71078 | 5013 ft | 227 kts | 72° |
| 2026-04-26 19:48 | 37.43605 | 14.73000 | 4959 ft | 228 kts | 77° |
| 2026-04-26 19:48 | 37.43907 | 14.74973 | 4654 ft | 230 kts | 81° |
| 2026-04-26 19:49 | 37.44139 | 14.76960 | 4373 ft | 230 kts | 82° |
| 2026-04-26 19:49 | 37.44334 | 14.78955 | 4085 ft | 229 kts | 83° |
| 2026-04-26 19:49 | 37.44511 | 14.80949 | 3798 ft | 229 kts | 83° |
| 2026-04-26 19:49 | 37.44681 | 14.82928 | 3550 ft | 224 kts | 83° |
| 2026-04-26 19:50 | 37.44845 | 14.84853 | 3244 ft | 219 kts | 83° |
| 2026-04-26 19:50 | 37.45004 | 14.86740 | 2947 ft | 214 kts | 83° |
| 2026-04-26 19:50 | 37.45160 | 14.88586 | 2668 ft | 210 kts | 83° |
| 2026-04-26 19:50 | 37.45310 | 14.90376 | 2398 ft | 201 kts | 83° |
| 2026-04-26 19:51 | 37.45451 | 14.92062 | 2136 ft | 192 kts | 84° |
| 2026-04-26 19:51 | 37.45589 | 14.93695 | 1879 ft | 184 kts | 84° |
| 2026-04-26 19:51 | 37.45719 | 14.95248 | 1652 ft | 174 kts | 84° |
| 2026-04-26 19:51 | 37.45840 | 14.96685 | 1448 ft | 158 kts | 84° |
| 2026-04-26 19:52 | 37.45950 | 14.98032 | 1219 ft | 151 kts | 84° |
| 2026-04-26 19:52 | 37.46051 | 14.99332 | 1011 ft | 147 kts | 83° |
| 2026-04-26 19:52 | 37.46159 | 15.00611 | 838 ft | 146 kts | 83° |
| 2026-04-26 19:52 | 37.46271 | 15.01873 | 661 ft | 144 kts | 83° |
| 2026-04-26 19:53 | 37.46382 | 15.03127 | 460 ft | 143 kts | 84° |
| 2026-04-26 19:53 | 37.46480 | 15.04374 | 264 ft | 143 kts | 83° |
| 2026-04-26 19:53 | 37.46592 | 15.05614 | 64 ft | 142 kts | 83° |
| 2026-04-26 19:53 | 37.46680 | 15.06666 | 50 ft | 88 kts | 84° |
| 2026-04-26 19:54 | 37.46724 | 15.07194 | 54 ft | 40 kts | 84° |
| 2026-04-26 19:54 | 37.46751 | 15.07478 | 52 ft | 31 kts | 80° |
| 2026-04-26 19:54 | 37.46819 | 15.07708 | 50 ft | 25 kts | 56° |
| 2026-04-26 19:54 | 37.46885 | 15.07808 | 54 ft | 10 kts | 25° |
| 2026-04-26 19:55 | 37.46937 | 15.07763 | 54 ft | 11 kts | 275° |
| 2026-04-26 19:55 | 37.46929 | 15.07653 | 54 ft | 14 kts | 264° |
| 2026-04-26 19:55 | 37.46918 | 15.07520 | 51 ft | 17 kts | 264° |
| 2026-04-26 19:55 | 37.46905 | 15.07365 | 51 ft | 19 kts | 264° |
| 2026-04-26 19:56 | 37.46890 | 15.07189 | 52 ft | 21 kts | 264° |
| 2026-04-26 19:56 | 37.46876 | 15.07023 | 54 ft | 16 kts | 264° |
| 2026-04-26 19:56 | 37.46865 | 15.06888 | 51 ft | 15 kts | 264° |
| 2026-04-26 19:56 | 37.46856 | 15.06778 | 53 ft | 10 kts | 264° |
| 2026-04-26 19:57 | 37.46851 | 15.06712 | 49 ft | 4 kts | 269° |
| 2026-04-26 19:57 | 37.46876 | 15.06690 | 52 ft | 6 kts | 347° |
| 2026-04-26 19:57 | 37.46909 | 15.06684 | 49 ft | 2 kts | 353° |
| 2026-04-26 19:57 | 37.46914 | 15.06683 | 49 ft | 0 kts | 353° |